sensor_id;sensor_type;location;lat;lon;timestamp;temperature;humidity
20921;DHT22;10620;52.472;21.028;2022-08-24T00:02:01;18.10;99.90
20921;DHT22;10620;52.472;21.028;2022-08-24T00:04:31;18.00;99.90
20921;DHT22;10620;52.472;21.028;2022-08-24T00:07:00;17.90;99.90
20921;DHT22;10620;52.472;21.028;2022-08-24T00:09:30;17.90;99.90
20921;DHT22;10620;52.472;21.028;2022-08-24T00:11:59;17.80;99.90
20921;DHT22;10620;52.472;21.028;2022-08-24T00:14:29;17.80;99.90
20921;DHT22;10620;52.472;21.028;2022-08-24T00:16:58;17.80;99.90
20921;DHT22;10620;52.472;21.028;2022-08-24T00:19:27;17.80;99.90
20921;DHT22;10620;52.472;21.028;2022-08-24T00:21:56;17.70;99.90
20921;DHT22;10620;52.472;21.028;2022-08-24T00:24:26;17.70;99.90
20921;DHT22;10620;52.472;21.028;2022-08-24T00:26:55;17.70;99.90
20921;DHT22;10620;52.472;21.028;2022-08-24T00:29:24;17.60;99.90
20921;DHT22;10620;52.472;21.028;2022-08-24T00:31:54;17.60;99.90
20921;DHT22;10620;52.472;21.028;2022-08-24T00:34:23;17.60;99.90
20921;DHT22;10620;52.472;21.028;2022-08-24T00:36:53;17.60;99.90
20921;DHT22;10620;52.472;21.028;2022-08-24T00:39:21;17.60;99.90
20921;DHT22;10620;52.472;21.028;2022-08-24T00:41:50;17.60;99.90
20921;DHT22;10620;52.472;21.028;2022-08-24T00:44:20;17.50;99.90
20921;DHT22;10620;52.472;21.028;2022-08-24T00:46:53;17.50;99.90
20921;DHT22;10620;52.472;21.028;2022-08-24T00:49:26;17.50;99.90
20921;DHT22;10620;52.472;21.028;2022-08-24T00:51:59;17.60;99.90
20921;DHT22;10620;52.472;21.028;2022-08-24T00:54:35;17.60;99.90
20921;DHT22;10620;52.472;21.028;2022-08-24T00:57:12;17.60;99.90
20921;DHT22;10620;52.472;21.028;2022-08-24T00:59:42;17.70;99.90
20921;DHT22;10620;52.472;21.028;2022-08-24T01:02:13;17.70;99.90
20921;DHT22;10620;52.472;21.028;2022-08-24T01:04:44;17.70;99.90
20921;DHT22;10620;52.472;21.028;2022-08-24T01:07:15;17.70;99.90
20921;DHT22;10620;52.472;21.028;2022-08-24T01:09:44;17.70;99.90
20921;DHT22;10620;52.472;21.028;2022-08-24T01:12:13;17.60;99.90
20921;DHT22;10620;52.472;21.028;2022-08-24T01:14:43;17.60;99.90
20921;DHT22;10620;52.472;21.028;2022-08-24T01:17:12;17.60;99.90
20921;DHT22;10620;52.472;21.028;2022-08-24T01:20:07;17.50;99.90
20921;DHT22;10620;52.472;21.028;2022-08-24T01:22:43;17.50;99.90
20921;DHT22;10620;52.472;21.028;2022-08-24T01:25:16;17.60;99.90
20921;DHT22;10620;52.472;21.028;2022-08-24T01:27:44;17.50;99.90
20921;DHT22;10620;52.472;21.028;2022-08-24T01:30:15;17.50;99.90
20921;DHT22;10620;52.472;21.028;2022-08-24T01:32:51;17.50;99.90
20921;DHT22;10620;52.472;21.028;2022-08-24T01:35:21;17.50;99.90
20921;DHT22;10620;52.472;21.028;2022-08-24T01:37:50;17.50;99.90
20921;DHT22;10620;52.472;21.028;2022-08-24T01:40:21;17.50;99.90
20921;DHT22;10620;52.472;21.028;2022-08-24T01:42:53;17.50;99.90
20921;DHT22;10620;52.472;21.028;2022-08-24T01:45:22;17.50;99.90
20921;DHT22;10620;52.472;21.028;2022-08-24T01:47:50;17.40;99.90
20921;DHT22;10620;52.472;21.028;2022-08-24T01:50:20;17.40;99.90
20921;DHT22;10620;52.472;21.028;2022-08-24T01:52:49;17.30;99.90
20921;DHT22;10620;52.472;21.028;2022-08-24T01:55:36;17.20;99.90
20921;DHT22;10620;52.472;21.028;2022-08-24T01:58:05;17.20;99.90
20921;DHT22;10620;52.472;21.028;2022-08-24T02:00:34;17.10;99.90
20921;DHT22;10620;52.472;21.028;2022-08-24T02:03:03;17.00;99.90
20921;DHT22;10620;52.472;21.028;2022-08-24T02:05:33;17.00;99.90
20921;DHT22;10620;52.472;21.028;2022-08-24T02:08:02;17.00;99.90
20921;DHT22;10620;52.472;21.028;2022-08-24T02:10:32;17.00;99.90
20921;DHT22;10620;52.472;21.028;2022-08-24T02:13:05;17.10;99.90
20921;DHT22;10620;52.472;21.028;2022-08-24T02:15:36;17.00;99.90
20921;DHT22;10620;52.472;21.028;2022-08-24T02:18:09;17.10;99.90
20921;DHT22;10620;52.472;21.028;2022-08-24T02:20:43;17.10;99.90
20921;DHT22;10620;52.472;21.028;2022-08-24T02:23:12;17.10;99.90
20921;DHT22;10620;52.472;21.028;2022-08-24T02:25:41;17.10;99.90
20921;DHT22;10620;52.472;21.028;2022-08-24T02:28:12;17.10;99.90
20921;DHT22;10620;52.472;21.028;2022-08-24T02:30:40;17.20;99.90
20921;DHT22;10620;52.472;21.028;2022-08-24T02:33:10;17.10;99.90
20921;DHT22;10620;52.472;21.028;2022-08-24T02:35:39;17.10;99.90
20921;DHT22;10620;52.472;21.028;2022-08-24T02:38:08;17.10;99.90
20921;DHT22;10620;52.472;21.028;2022-08-24T02:40:38;17.00;99.90
20921;DHT22;10620;52.472;21.028;2022-08-24T02:43:08;17.00;99.90
20921;DHT22;10620;52.472;21.028;2022-08-24T02:45:39;17.00;99.90
20921;DHT22;10620;52.472;21.028;2022-08-24T02:48:08;17.00;99.90
20921;DHT22;10620;52.472;21.028;2022-08-24T02:50:37;16.90;99.90
20921;DHT22;10620;52.472;21.028;2022-08-24T02:53:07;17.00;99.90
20921;DHT22;10620;52.472;21.028;2022-08-24T02:55:36;17.00;99.90
20921;DHT22;10620;52.472;21.028;2022-08-24T02:58:07;16.90;99.90
20921;DHT22;10620;52.472;21.028;2022-08-24T03:00:37;16.90;99.90
20921;DHT22;10620;52.472;21.028;2022-08-24T03:03:08;16.90;99.90
20921;DHT22;10620;52.472;21.028;2022-08-24T03:05:38;16.90;99.90
20921;DHT22;10620;52.472;21.028;2022-08-24T03:08:08;16.80;99.90
20921;DHT22;10620;52.472;21.028;2022-08-24T03:10:38;16.80;99.90
20921;DHT22;10620;52.472;21.028;2022-08-24T03:13:07;16.80;99.90
20921;DHT22;10620;52.472;21.028;2022-08-24T03:15:37;16.80;99.90
20921;DHT22;10620;52.472;21.028;2022-08-24T03:18:06;16.80;99.90
20921;DHT22;10620;52.472;21.028;2022-08-24T03:20:36;16.80;99.90
20921;DHT22;10620;52.472;21.028;2022-08-24T03:23:05;16.80;99.90
20921;DHT22;10620;52.472;21.028;2022-08-24T03:25:33;16.80;99.90
20921;DHT22;10620;52.472;21.028;2022-08-24T03:28:03;16.80;99.90
20921;DHT22;10620;52.472;21.028;2022-08-24T03:30:37;16.80;99.90
20921;DHT22;10620;52.472;21.028;2022-08-24T03:33:08;16.80;99.90
20921;DHT22;10620;52.472;21.028;2022-08-24T03:35:39;16.90;99.90
20921;DHT22;10620;52.472;21.028;2022-08-24T03:38:10;16.90;99.90
20921;DHT22;10620;52.472;21.028;2022-08-24T03:40:39;16.90;99.90
20921;DHT22;10620;52.472;21.028;2022-08-24T03:43:08;17.00;99.90
20921;DHT22;10620;52.472;21.028;2022-08-24T03:45:57;17.00;99.90
20921;DHT22;10620;52.472;21.028;2022-08-24T03:48:27;17.10;99.90
20921;DHT22;10620;52.472;21.028;2022-08-24T03:50:58;17.10;99.90
20921;DHT22;10620;52.472;21.028;2022-08-24T03:53:26;17.20;99.90
20921;DHT22;10620;52.472;21.028;2022-08-24T03:55:55;17.20;99.90
20921;DHT22;10620;52.472;21.028;2022-08-24T03:58:24;17.30;99.90
20921;DHT22;10620;52.472;21.028;2022-08-24T04:00:55;17.40;99.90
20921;DHT22;10620;52.472;21.028;2022-08-24T04:03:24;17.50;99.90
20921;DHT22;10620;52.472;21.028;2022-08-24T04:06:00;17.60;99.90
20921;DHT22;10620;52.472;21.028;2022-08-24T04:08:30;17.60;99.90
20921;DHT22;10620;52.472;21.028;2022-08-24T04:10:59;17.70;99.90
20921;DHT22;10620;52.472;21.028;2022-08-24T04:13:28;17.70;99.90
20921;DHT22;10620;52.472;21.028;2022-08-24T04:16:02;17.80;99.90
20921;DHT22;10620;52.472;21.028;2022-08-24T04:18:31;17.90;99.90
20921;DHT22;10620;52.472;21.028;2022-08-24T04:21:01;17.80;99.90
20921;DHT22;10620;52.472;21.028;2022-08-24T04:23:31;17.90;99.90
20921;DHT22;10620;52.472;21.028;2022-08-24T04:26:15;17.90;99.90
20921;DHT22;10620;52.472;21.028;2022-08-24T04:29:05;18.00;99.90
20921;DHT22;10620;52.472;21.028;2022-08-24T04:31:40;18.10;99.90
20921;DHT22;10620;52.472;21.028;2022-08-24T04:34:12;18.20;99.90
20921;DHT22;10620;52.472;21.028;2022-08-24T04:36:43;18.20;99.90
20921;DHT22;10620;52.472;21.028;2022-08-24T04:39:13;18.30;99.90
20921;DHT22;10620;52.472;21.028;2022-08-24T04:42:00;18.30;99.90
20921;DHT22;10620;52.472;21.028;2022-08-24T04:44:35;18.40;99.90
20921;DHT22;10620;52.472;21.028;2022-08-24T04:47:04;18.40;99.90
20921;DHT22;10620;52.472;21.028;2022-08-24T04:49:36;18.50;99.90
20921;DHT22;10620;52.472;21.028;2022-08-24T04:52:07;18.60;99.90
20921;DHT22;10620;52.472;21.028;2022-08-24T04:54:36;18.70;99.90
20921;DHT22;10620;52.472;21.028;2022-08-24T04:57:09;18.80;99.90
20921;DHT22;10620;52.472;21.028;2022-08-24T04:59:44;18.80;99.90
20921;DHT22;10620;52.472;21.028;2022-08-24T05:02:13;19.00;99.90
20921;DHT22;10620;52.472;21.028;2022-08-24T05:04:45;19.10;99.90
20921;DHT22;10620;52.472;21.028;2022-08-24T05:07:15;19.20;99.90
20921;DHT22;10620;52.472;21.028;2022-08-24T05:09:46;19.30;99.90
20921;DHT22;10620;52.472;21.028;2022-08-24T05:12:19;19.40;99.90
20921;DHT22;10620;52.472;21.028;2022-08-24T05:14:57;19.50;99.90
20921;DHT22;10620;52.472;21.028;2022-08-24T05:17:26;19.70;99.90
20921;DHT22;10620;52.472;21.028;2022-08-24T05:19:55;19.80;99.90
20921;DHT22;10620;52.472;21.028;2022-08-24T05:22:26;20.00;99.90
20921;DHT22;10620;52.472;21.028;2022-08-24T05:24:56;20.20;99.90
20921;DHT22;10620;52.472;21.028;2022-08-24T05:27:25;20.40;99.90
20921;DHT22;10620;52.472;21.028;2022-08-24T05:29:54;20.50;99.90
20921;DHT22;10620;52.472;21.028;2022-08-24T05:32:23;20.70;99.90
20921;DHT22;10620;52.472;21.028;2022-08-24T05:34:54;20.90;99.90
20921;DHT22;10620;52.472;21.028;2022-08-24T05:37:25;20.90;99.90
20921;DHT22;10620;52.472;21.028;2022-08-24T05:40:14;21.10;99.90
20921;DHT22;10620;52.472;21.028;2022-08-24T05:42:47;21.30;99.90
20921;DHT22;10620;52.472;21.028;2022-08-24T05:45:17;21.50;99.90
20921;DHT22;10620;52.472;21.028;2022-08-24T05:47:45;21.70;99.90
20921;DHT22;10620;52.472;21.028;2022-08-24T05:50:50;21.80;99.90
20921;DHT22;10620;52.472;21.028;2022-08-24T05:53:20;21.80;99.90
20921;DHT22;10620;52.472;21.028;2022-08-24T05:55:49;22.00;99.90
20921;DHT22;10620;52.472;21.028;2022-08-24T05:58:18;22.00;99.90
20921;DHT22;10620;52.472;21.028;2022-08-24T06:00:57;22.10;99.90
20921;DHT22;10620;52.472;21.028;2022-08-24T06:03:27;22.10;99.90
20921;DHT22;10620;52.472;21.028;2022-08-24T06:05:55;22.20;99.90
20921;DHT22;10620;52.472;21.028;2022-08-24T06:08:26;22.20;99.90
20921;DHT22;10620;52.472;21.028;2022-08-24T06:10:56;22.20;99.90
20921;DHT22;10620;52.472;21.028;2022-08-24T06:13:27;22.20;99.90
20921;DHT22;10620;52.472;21.028;2022-08-24T06:16:01;22.40;99.90
20921;DHT22;10620;52.472;21.028;2022-08-24T06:18:47;22.50;99.90
20921;DHT22;10620;52.472;21.028;2022-08-24T06:21:18;22.60;99.90
20921;DHT22;10620;52.472;21.028;2022-08-24T06:23:49;22.80;99.90
20921;DHT22;10620;52.472;21.028;2022-08-24T06:26:18;23.00;99.90
20921;DHT22;10620;52.472;21.028;2022-08-24T06:29:05;23.10;99.90
20921;DHT22;10620;52.472;21.028;2022-08-24T06:31:43;23.10;99.90
20921;DHT22;10620;52.472;21.028;2022-08-24T06:34:13;23.60;99.90
20921;DHT22;10620;52.472;21.028;2022-08-24T06:36:43;23.70;99.90
20921;DHT22;10620;52.472;21.028;2022-08-24T06:39:14;23.80;99.90
20921;DHT22;10620;52.472;21.028;2022-08-24T06:41:44;23.80;99.90
20921;DHT22;10620;52.472;21.028;2022-08-24T06:44:19;23.70;99.90
20921;DHT22;10620;52.472;21.028;2022-08-24T06:46:57;23.60;99.90
20921;DHT22;10620;52.472;21.028;2022-08-24T06:49:27;23.60;99.90
20921;DHT22;10620;52.472;21.028;2022-08-24T06:51:55;23.60;99.90
20921;DHT22;10620;52.472;21.028;2022-08-24T06:54:26;23.60;99.90
20921;DHT22;10620;52.472;21.028;2022-08-24T06:56:54;23.60;99.90
20921;DHT22;10620;52.472;21.028;2022-08-24T06:59:25;23.70;99.90
20921;DHT22;10620;52.472;21.028;2022-08-24T07:01:55;23.80;99.90
20921;DHT22;10620;52.472;21.028;2022-08-24T07:04:27;24.00;99.90
20921;DHT22;10620;52.472;21.028;2022-08-24T07:07:15;24.10;99.90
20921;DHT22;10620;52.472;21.028;2022-08-24T07:09:45;24.30;99.90
20921;DHT22;10620;52.472;21.028;2022-08-24T07:12:14;24.40;99.90
20921;DHT22;10620;52.472;21.028;2022-08-24T07:14:43;24.30;99.90
20921;DHT22;10620;52.472;21.028;2022-08-24T07:17:11;24.20;99.90
20921;DHT22;10620;52.472;21.028;2022-08-24T07:19:41;24.30;99.90
20921;DHT22;10620;52.472;21.028;2022-08-24T07:22:11;24.40;99.90
20921;DHT22;10620;52.472;21.028;2022-08-24T07:24:42;24.40;99.90
20921;DHT22;10620;52.472;21.028;2022-08-24T07:27:12;24.50;99.90
20921;DHT22;10620;52.472;21.028;2022-08-24T07:29:41;24.50;99.90
20921;DHT22;10620;52.472;21.028;2022-08-24T07:32:22;24.50;99.90
20921;DHT22;10620;52.472;21.028;2022-08-24T07:34:54;24.50;99.90
20921;DHT22;10620;52.472;21.028;2022-08-24T07:37:23;24.60;99.90
20921;DHT22;10620;52.472;21.028;2022-08-24T07:39:59;24.60;99.90
20921;DHT22;10620;52.472;21.028;2022-08-24T07:42:29;24.60;99.90
20921;DHT22;10620;52.472;21.028;2022-08-24T07:45:00;24.70;99.90
20921;DHT22;10620;52.472;21.028;2022-08-24T07:47:29;24.60;99.90
20921;DHT22;10620;52.472;21.028;2022-08-24T07:50:15;24.70;99.90
20921;DHT22;10620;52.472;21.028;2022-08-24T07:52:44;25.40;99.90
20921;DHT22;10620;52.472;21.028;2022-08-24T07:55:13;24.90;99.90
20921;DHT22;10620;52.472;21.028;2022-08-24T07:57:43;25.10;99.90
20921;DHT22;10620;52.472;21.028;2022-08-24T08:00:14;25.10;99.90
20921;DHT22;10620;52.472;21.028;2022-08-24T08:02:48;25.10;99.90
20921;DHT22;10620;52.472;21.028;2022-08-24T08:05:19;25.10;99.90
20921;DHT22;10620;52.472;21.028;2022-08-24T08:07:51;25.10;99.90
20921;DHT22;10620;52.472;21.028;2022-08-24T08:10:20;25.30;99.90
20921;DHT22;10620;52.472;21.028;2022-08-24T08:12:52;25.40;99.90
20921;DHT22;10620;52.472;21.028;2022-08-24T08:15:21;25.50;99.90
20921;DHT22;10620;52.472;21.028;2022-08-24T08:17:59;25.50;99.90
20921;DHT22;10620;52.472;21.028;2022-08-24T08:20:28;25.50;99.90
20921;DHT22;10620;52.472;21.028;2022-08-24T08:22:57;25.50;99.90
20921;DHT22;10620;52.472;21.028;2022-08-24T08:26:02;25.70;99.90
20921;DHT22;10620;52.472;21.028;2022-08-24T08:28:43;25.80;99.90
20921;DHT22;10620;52.472;21.028;2022-08-24T08:31:13;25.90;99.90
20921;DHT22;10620;52.472;21.028;2022-08-24T08:33:42;26.00;99.90
20921;DHT22;10620;52.472;21.028;2022-08-24T08:36:12;26.20;99.90
20921;DHT22;10620;52.472;21.028;2022-08-24T08:38:47;26.40;99.90
20921;DHT22;10620;52.472;21.028;2022-08-24T08:41:21;26.60;99.90
20921;DHT22;10620;52.472;21.028;2022-08-24T08:44:13;26.80;99.90
20921;DHT22;10620;52.472;21.028;2022-08-24T08:46:46;26.70;99.90
20921;DHT22;10620;52.472;21.028;2022-08-24T08:49:54;26.80;99.90
20921;DHT22;10620;52.472;21.028;2022-08-24T08:52:32;26.80;99.90
20921;DHT22;10620;52.472;21.028;2022-08-24T08:55:13;26.80;99.90
20921;DHT22;10620;52.472;21.028;2022-08-24T08:57:47;27.00;99.90
20921;DHT22;10620;52.472;21.028;2022-08-24T09:00:21;27.10;99.90
20921;DHT22;10620;52.472;21.028;2022-08-24T09:03:10;27.30;99.90
20921;DHT22;10620;52.472;21.028;2022-08-24T09:06:13;27.40;99.90
20921;DHT22;10620;52.472;21.028;2022-08-24T09:08:52;27.70;99.90
20921;DHT22;10620;52.472;21.028;2022-08-24T09:11:26;28.10;99.90
20921;DHT22;10620;52.472;21.028;2022-08-24T09:16:48;28.20;99.90
20921;DHT22;10620;52.472;21.028;2022-08-24T09:19:27;28.10;99.90
20921;DHT22;10620;52.472;21.028;2022-08-24T09:22:02;27.90;99.90
20921;DHT22;10620;52.472;21.028;2022-08-24T09:24:53;27.90;99.90
20921;DHT22;10620;52.472;21.028;2022-08-24T09:27:38;27.80;99.90
20921;DHT22;10620;52.472;21.028;2022-08-24T09:30:14;27.90;99.90
20921;DHT22;10620;52.472;21.028;2022-08-24T09:32:50;27.80;99.90
20921;DHT22;10620;52.472;21.028;2022-08-24T09:35:29;27.80;99.90
20921;DHT22;10620;52.472;21.028;2022-08-24T09:37:59;27.60;99.90
20921;DHT22;10620;52.472;21.028;2022-08-24T09:40:38;27.60;99.90
20921;DHT22;10620;52.472;21.028;2022-08-24T09:57:11;28.20;99.90
20921;DHT22;10620;52.472;21.028;2022-08-24T10:02:44;28.30;99.90
20921;DHT22;10620;52.472;21.028;2022-08-24T10:05:19;28.40;99.90
20921;DHT22;10620;52.472;21.028;2022-08-24T10:07:52;28.40;99.90
20921;DHT22;10620;52.472;21.028;2022-08-24T10:10:25;28.50;99.90
20921;DHT22;10620;52.472;21.028;2022-08-24T10:15:28;28.90;99.90
20921;DHT22;10620;52.472;21.028;2022-08-24T10:18:06;29.20;99.90
20921;DHT22;10620;52.472;21.028;2022-08-24T10:20:44;29.40;99.90
20921;DHT22;10620;52.472;21.028;2022-08-24T10:23:23;29.50;99.90
20921;DHT22;10620;52.472;21.028;2022-08-24T10:25:58;29.40;99.90
20921;DHT22;10620;52.472;21.028;2022-08-24T10:28:33;29.40;99.90
20921;DHT22;10620;52.472;21.028;2022-08-24T10:31:05;29.20;99.90
20921;DHT22;10620;52.472;21.028;2022-08-24T10:33:44;29.20;99.90
20921;DHT22;10620;52.472;21.028;2022-08-24T10:36:37;29.20;99.90
20921;DHT22;10620;52.472;21.028;2022-08-24T10:39:16;29.20;99.90
20921;DHT22;10620;52.472;21.028;2022-08-24T10:45:15;29.80;99.90
20921;DHT22;10620;52.472;21.028;2022-08-24T10:47:54;30.10;99.90
20921;DHT22;10620;52.472;21.028;2022-08-24T10:50:27;30.20;99.90
20921;DHT22;10620;52.472;21.028;2022-08-24T10:55:50;30.50;99.90
20921;DHT22;10620;52.472;21.028;2022-08-24T10:58:30;30.50;99.90
20921;DHT22;10620;52.472;21.028;2022-08-24T11:03:56;30.80;99.90
20921;DHT22;10620;52.472;21.028;2022-08-24T11:06:27;30.80;99.90
20921;DHT22;10620;52.472;21.028;2022-08-24T11:09:00;30.80;99.90
20921;DHT22;10620;52.472;21.028;2022-08-24T11:11:31;31.20;99.90
20921;DHT22;10620;52.472;21.028;2022-08-24T11:14:01;31.30;99.90
20921;DHT22;10620;52.472;21.028;2022-08-24T11:16:36;31.30;99.90
20921;DHT22;10620;52.472;21.028;2022-08-24T11:21:44;31.60;97.80
20921;DHT22;10620;52.472;21.028;2022-08-24T11:24:23;31.50;94.10
20921;DHT22;10620;52.472;21.028;2022-08-24T11:26:53;31.40;99.90
20921;DHT22;10620;52.472;21.028;2022-08-24T11:29:25;31.40;99.90
20921;DHT22;10620;52.472;21.028;2022-08-24T11:31:57;31.70;99.90
20921;DHT22;10620;52.472;21.028;2022-08-24T11:34:31;31.80;99.90
20921;DHT22;10620;52.472;21.028;2022-08-24T11:37:01;31.90;99.90
20921;DHT22;10620;52.472;21.028;2022-08-24T11:39:32;31.90;96.30
20921;DHT22;10620;52.472;21.028;2022-08-24T11:42:06;31.80;87.50
20921;DHT22;10620;52.472;21.028;2022-08-24T11:44:40;31.70;97.90
20921;DHT22;10620;52.472;21.028;2022-08-24T11:49:58;32.00;82.30
20921;DHT22;10620;52.472;21.028;2022-08-24T11:52:34;32.10;84.50
20921;DHT22;10620;52.472;21.028;2022-08-24T11:55:06;32.20;87.60
20921;DHT22;10620;52.472;21.028;2022-08-24T11:57:37;32.30;82.20
20921;DHT22;10620;52.472;21.028;2022-08-24T12:00:16;32.30;82.60
20921;DHT22;10620;52.472;21.028;2022-08-24T12:02:47;32.40;84.30
20921;DHT22;10620;52.472;21.028;2022-08-24T12:05:23;32.50;77.60
20921;DHT22;10620;52.472;21.028;2022-08-24T12:07:58;32.50;81.90
20921;DHT22;10620;52.472;21.028;2022-08-24T12:10:30;32.40;98.30
20921;DHT22;10620;52.472;21.028;2022-08-24T12:13:05;32.60;79.50
20921;DHT22;10620;52.472;21.028;2022-08-24T12:15:38;32.70;89.10
20921;DHT22;10620;52.472;21.028;2022-08-24T12:18:17;32.80;91.30
20921;DHT22;10620;52.472;21.028;2022-08-24T12:20:50;32.70;85.80
20921;DHT22;10620;52.472;21.028;2022-08-24T12:23:23;32.70;96.80
20921;DHT22;10620;52.472;21.028;2022-08-24T12:25:54;32.50;90.20
20921;DHT22;10620;52.472;21.028;2022-08-24T12:28:33;32.60;90.40
20921;DHT22;10620;52.472;21.028;2022-08-24T12:31:06;32.50;94.40
20921;DHT22;10620;52.472;21.028;2022-08-24T12:33:36;32.50;99.10
20921;DHT22;10620;52.472;21.028;2022-08-24T12:36:09;32.40;96.00
20921;DHT22;10620;52.472;21.028;2022-08-24T12:38:42;32.40;96.20
20921;DHT22;10620;52.472;21.028;2022-08-24T12:41:14;32.40;92.30
20921;DHT22;10620;52.472;21.028;2022-08-24T12:43:46;32.60;72.70
20921;DHT22;10620;52.472;21.028;2022-08-24T12:46:18;32.50;71.30
20921;DHT22;10620;52.472;21.028;2022-08-24T12:48:49;32.50;72.60
20921;DHT22;10620;52.472;21.028;2022-08-24T12:51:38;32.40;72.00
20921;DHT22;10620;52.472;21.028;2022-08-24T12:54:16;32.30;73.00
20921;DHT22;10620;52.472;21.028;2022-08-24T12:56:54;32.20;71.10
20921;DHT22;10620;52.472;21.028;2022-08-24T12:59:29;32.10;76.00
20921;DHT22;10620;52.472;21.028;2022-08-24T13:02:02;32.10;70.10
20921;DHT22;10620;52.472;21.028;2022-08-24T13:04:36;31.70;77.20
20921;DHT22;10620;52.472;21.028;2022-08-24T13:07:08;31.70;77.90
20921;DHT22;10620;52.472;21.028;2022-08-24T13:09:39;31.80;79.20
20921;DHT22;10620;52.472;21.028;2022-08-24T13:15:01;31.90;89.60
20921;DHT22;10620;52.472;21.028;2022-08-24T13:17:46;31.90;94.80
20921;DHT22;10620;52.472;21.028;2022-08-24T13:20:17;31.80;82.10
20921;DHT22;10620;52.472;21.028;2022-08-24T13:22:58;31.80;74.20
20921;DHT22;10620;52.472;21.028;2022-08-24T13:25:42;32.00;87.20
20921;DHT22;10620;52.472;21.028;2022-08-24T13:31:12;32.10;77.00
20921;DHT22;10620;52.472;21.028;2022-08-24T13:38:59;32.40;78.30
20921;DHT22;10620;52.472;21.028;2022-08-24T13:41:37;32.40;75.00
20921;DHT22;10620;52.472;21.028;2022-08-24T13:44:08;32.50;67.90
20921;DHT22;10620;52.472;21.028;2022-08-24T13:46:46;32.60;72.00
20921;DHT22;10620;52.472;21.028;2022-08-24T13:49:26;32.60;77.90
20921;DHT22;10620;52.472;21.028;2022-08-24T13:52:02;32.80;65.70
20921;DHT22;10620;52.472;21.028;2022-08-24T13:54:35;32.80;67.80
20921;DHT22;10620;52.472;21.028;2022-08-24T13:57:25;32.90;69.00
20921;DHT22;10620;52.472;21.028;2022-08-24T14:00:13;32.90;63.80
20921;DHT22;10620;52.472;21.028;2022-08-24T14:02:49;32.80;64.10
20921;DHT22;10620;52.472;21.028;2022-08-24T14:05:23;32.80;67.40
20921;DHT22;10620;52.472;21.028;2022-08-24T14:07:56;32.90;66.10
20921;DHT22;10620;52.472;21.028;2022-08-24T14:10:34;32.70;71.40
20921;DHT22;10620;52.472;21.028;2022-08-24T14:13:13;32.60;71.80
20921;DHT22;10620;52.472;21.028;2022-08-24T14:15:53;32.10;68.80
20921;DHT22;10620;52.472;21.028;2022-08-24T14:18:49;32.10;70.40
20921;DHT22;10620;52.472;21.028;2022-08-24T14:21:18;31.80;80.70
20921;DHT22;10620;52.472;21.028;2022-08-24T14:23:51;31.60;83.60
20921;DHT22;10620;52.472;21.028;2022-08-24T14:34:49;30.60;75.60
20921;DHT22;10620;52.472;21.028;2022-08-24T14:37:22;30.70;78.50
20921;DHT22;10620;52.472;21.028;2022-08-24T14:39:53;30.70;78.30
20921;DHT22;10620;52.472;21.028;2022-08-24T14:42:31;30.70;85.70
20921;DHT22;10620;52.472;21.028;2022-08-24T14:45:04;30.50;89.70
20921;DHT22;10620;52.472;21.028;2022-08-24T14:47:36;30.50;82.50
20921;DHT22;10620;52.472;21.028;2022-08-24T14:50:11;30.40;85.50
20921;DHT22;10620;52.472;21.028;2022-08-24T14:52:43;30.20;91.80
20921;DHT22;10620;52.472;21.028;2022-08-24T14:55:15;30.20;90.50
20921;DHT22;10620;52.472;21.028;2022-08-24T14:57:49;30.10;90.60
20921;DHT22;10620;52.472;21.028;2022-08-24T15:00:31;30.00;89.50
20921;DHT22;10620;52.472;21.028;2022-08-24T15:03:09;30.00;90.20
20921;DHT22;10620;52.472;21.028;2022-08-24T15:05:43;30.10;94.20
20921;DHT22;10620;52.472;21.028;2022-08-24T15:08:34;29.90;95.80
20921;DHT22;10620;52.472;21.028;2022-08-24T15:11:10;29.90;98.00
20921;DHT22;10620;52.472;21.028;2022-08-24T15:13:42;30.00;96.70
20921;DHT22;10620;52.472;21.028;2022-08-24T15:16:13;30.10;91.10
20921;DHT22;10620;52.472;21.028;2022-08-24T15:18:45;30.20;91.50
20921;DHT22;10620;52.472;21.028;2022-08-24T15:21:24;30.60;78.70
20921;DHT22;10620;52.472;21.028;2022-08-24T15:24:10;30.60;79.40
20921;DHT22;10620;52.472;21.028;2022-08-24T15:26:50;30.70;78.40
20921;DHT22;10620;52.472;21.028;2022-08-24T15:29:20;30.80;78.60
20921;DHT22;10620;52.472;21.028;2022-08-24T15:34:18;31.10;76.10
20921;DHT22;10620;52.472;21.028;2022-08-24T15:36:58;31.20;75.60
20921;DHT22;10620;52.472;21.028;2022-08-24T15:39:28;31.30;71.50
20921;DHT22;10620;52.472;21.028;2022-08-24T15:41:57;31.10;75.50
20921;DHT22;10620;52.472;21.028;2022-08-24T15:44:27;31.00;73.20
20921;DHT22;10620;52.472;21.028;2022-08-24T15:46:58;31.00;76.00
20921;DHT22;10620;52.472;21.028;2022-08-24T15:49:29;31.00;76.30
20921;DHT22;10620;52.472;21.028;2022-08-24T15:52:01;31.00;78.70
20921;DHT22;10620;52.472;21.028;2022-08-24T15:54:32;31.10;82.90
20921;DHT22;10620;52.472;21.028;2022-08-24T15:57:02;31.20;74.00
20921;DHT22;10620;52.472;21.028;2022-08-24T15:59:43;31.10;76.20
20921;DHT22;10620;52.472;21.028;2022-08-24T16:02:17;30.90;71.70
20921;DHT22;10620;52.472;21.028;2022-08-24T16:05:06;30.80;75.90
20921;DHT22;10620;52.472;21.028;2022-08-24T16:10:28;30.80;75.80
20921;DHT22;10620;52.472;21.028;2022-08-24T16:13:05;30.70;76.20
20921;DHT22;10620;52.472;21.028;2022-08-24T16:15:34;30.60;78.40
20921;DHT22;10620;52.472;21.028;2022-08-24T16:18:12;30.50;79.20
20921;DHT22;10620;52.472;21.028;2022-08-24T16:20:41;30.30;87.20
20921;DHT22;10620;52.472;21.028;2022-08-24T16:23:20;30.10;90.50
20921;DHT22;10620;52.472;21.028;2022-08-24T16:25:50;30.00;92.80
20921;DHT22;10620;52.472;21.028;2022-08-24T16:28:39;29.80;99.20
20921;DHT22;10620;52.472;21.028;2022-08-24T16:31:08;29.70;96.90
20921;DHT22;10620;52.472;21.028;2022-08-24T16:33:39;29.70;99.90
20921;DHT22;10620;52.472;21.028;2022-08-24T16:36:11;29.60;99.80
20921;DHT22;10620;52.472;21.028;2022-08-24T16:38:44;29.50;99.90
20921;DHT22;10620;52.472;21.028;2022-08-24T16:41:15;29.40;99.90
20921;DHT22;10620;52.472;21.028;2022-08-24T16:43:44;29.20;99.90
20921;DHT22;10620;52.472;21.028;2022-08-24T16:46:17;29.10;99.90
20921;DHT22;10620;52.472;21.028;2022-08-24T16:48:47;29.10;99.90
20921;DHT22;10620;52.472;21.028;2022-08-24T16:51:15;29.00;99.90
20921;DHT22;10620;52.472;21.028;2022-08-24T16:53:44;28.80;99.90
20921;DHT22;10620;52.472;21.028;2022-08-24T16:56:14;28.70;99.90